Allenhurst, Georgia
Current Conditions -  °F | °C
As of 10:58 PM on Friday 31 Oct 2014 (Local Time) from KLHW Reporting Station
Clear Clear  
Wind Chill: 60°   Ceiling: Unl
Heat Index: 60°   Visibility: 10mi
Dew Point: 42°   Wind: 7mph
Humidity: 52%   Direction: 300°WNW
Pressure: 29.83"   Gusts: NA
Location:  31.78°N, 81.61°W
Report Text: KLHW 010258Z AUTO 30006KT 10SM CLR 16/06 A2983 RMK AO2 SLP104 T01550056 52005
Loading
Personal Weather Stations






























Interactive Weather Map
Tropical Storm Tracking
New forecast layout! Learn more

10-Day Weather Forecast

Advertisements
Track Severe Weather on mobile